sensor_id;sensor_type;location;lat;lon;timestamp;P1;durP1;ratioP1;P2;durP2;ratioP2
74833;SDS011;63361;52.384;20.930;2022-10-31T00:01:43;52.10;;;23.97;;
74833;SDS011;63361;52.384;20.930;2022-10-31T00:04:09;58.30;;;24.30;;
74833;SDS011;63361;52.384;20.930;2022-10-31T00:06:34;59.17;;;24.60;;
74833;SDS011;63361;52.384;20.930;2022-10-31T00:09:00;68.10;;;26.80;;
74833;SDS011;63361;52.384;20.930;2022-10-31T00:11:28;61.22;;;24.55;;
74833;SDS011;63361;52.384;20.930;2022-10-31T00:13:53;59.40;;;23.67;;
74833;SDS011;63361;52.384;20.930;2022-10-31T00:16:20;57.87;;;24.33;;
74833;SDS011;63361;52.384;20.930;2022-10-31T00:18:48;57.38;;;23.98;;
74833;SDS011;63361;52.384;20.930;2022-10-31T00:21:14;52.08;;;23.00;;
74833;SDS011;63361;52.384;20.930;2022-10-31T00:23:39;52.43;;;22.23;;
74833;SDS011;63361;52.384;20.930;2022-10-31T00:26:05;50.27;;;23.07;;
74833;SDS011;63361;52.384;20.930;2022-10-31T00:28:31;50.95;;;22.45;;
74833;SDS011;63361;52.384;20.930;2022-10-31T00:30:58;57.38;;;22.27;;
74833;SDS011;63361;52.384;20.930;2022-10-31T00:33:34;49.80;;;20.73;;
74833;SDS011;63361;52.384;20.930;2022-10-31T00:36:01;47.33;;;19.20;;
74833;SDS011;63361;52.384;20.930;2022-10-31T00:38:27;46.20;;;18.70;;
74833;SDS011;63361;52.384;20.930;2022-10-31T00:40:53;41.45;;;18.17;;
74833;SDS011;63361;52.384;20.930;2022-10-31T00:43:19;44.23;;;18.70;;
74833;SDS011;63361;52.384;20.930;2022-10-31T00:45:44;42.77;;;19.87;;
74833;SDS011;63361;52.384;20.930;2022-10-31T00:48:10;45.72;;;21.15;;
74833;SDS011;63361;52.384;20.930;2022-10-31T00:50:36;47.00;;;20.23;;
74833;SDS011;63361;52.384;20.930;2022-10-31T00:53:02;47.30;;;20.65;;
74833;SDS011;63361;52.384;20.930;2022-10-31T00:55:27;47.37;;;20.33;;
74833;SDS011;63361;52.384;20.930;2022-10-31T00:57:53;41.45;;;18.85;;
74833;SDS011;63361;52.384;20.930;2022-10-31T01:00:18;48.57;;;20.53;;
74833;SDS011;63361;52.384;20.930;2022-10-31T01:02:44;42.80;;;18.93;;
74833;SDS011;63361;52.384;20.930;2022-10-31T01:05:09;39.30;;;18.52;;
74833;SDS011;63361;52.384;20.930;2022-10-31T01:07:38;36.00;;;18.47;;
74833;SDS011;63361;52.384;20.930;2022-10-31T01:10:05;45.28;;;20.60;;
74833;SDS011;63361;52.384;20.930;2022-10-31T01:12:41;46.90;;;19.77;;
74833;SDS011;63361;52.384;20.930;2022-10-31T01:15:08;48.17;;;19.88;;
74833;SDS011;63361;52.384;20.930;2022-10-31T01:17:35;40.75;;;18.60;;
74833;SDS011;63361;52.384;20.930;2022-10-31T01:20:00;43.37;;;19.03;;
74833;SDS011;63361;52.384;20.930;2022-10-31T01:22:26;40.73;;;17.77;;
74833;SDS011;63361;52.384;20.930;2022-10-31T01:24:51;29.00;;;16.63;;
74833;SDS011;63361;52.384;20.930;2022-10-31T01:27:16;37.13;;;18.50;;
74833;SDS011;63361;52.384;20.930;2022-10-31T01:29:42;36.47;;;17.93;;
74833;SDS011;63361;52.384;20.930;2022-10-31T01:32:07;41.17;;;17.87;;
74833;SDS011;63361;52.384;20.930;2022-10-31T01:34:32;44.23;;;19.40;;
74833;SDS011;63361;52.384;20.930;2022-10-31T01:36:58;46.93;;;18.97;;
74833;SDS011;63361;52.384;20.930;2022-10-31T01:39:23;49.73;;;20.23;;
74833;SDS011;63361;52.384;20.930;2022-10-31T01:41:50;48.28;;;20.83;;
74833;SDS011;63361;52.384;20.930;2022-10-31T01:46:45;53.77;;;21.90;;
74833;SDS011;63361;52.384;20.930;2022-10-31T01:49:20;56.78;;;20.85;;
74833;SDS011;63361;52.384;20.930;2022-10-31T01:51:53;49.70;;;20.17;;
74833;SDS011;63361;52.384;20.930;2022-10-31T01:54:35;48.92;;;19.77;;
74833;SDS011;63361;52.384;20.930;2022-10-31T01:57:04;52.97;;;20.50;;
74833;SDS011;63361;52.384;20.930;2022-10-31T01:59:32;48.13;;;18.67;;
74833;SDS011;63361;52.384;20.930;2022-10-31T02:02:02;41.30;;;18.92;;
74833;SDS011;63361;52.384;20.930;2022-10-31T02:04:28;52.90;;;22.07;;
74833;SDS011;63361;52.384;20.930;2022-10-31T02:07:02;63.67;;;23.30;;
74833;SDS011;63361;52.384;20.930;2022-10-31T02:09:32;61.92;;;23.58;;
74833;SDS011;63361;52.384;20.930;2022-10-31T02:11:59;69.55;;;25.45;;
74833;SDS011;63361;52.384;20.930;2022-10-31T02:14:26;77.57;;;29.17;;
74833;SDS011;63361;52.384;20.930;2022-10-31T02:16:54;67.70;;;24.87;;
74833;SDS011;63361;52.384;20.930;2022-10-31T02:19:24;65.97;;;24.02;;
74833;SDS011;63361;52.384;20.930;2022-10-31T02:21:58;57.22;;;23.80;;
74833;SDS011;63361;52.384;20.930;2022-10-31T02:27:07;49.88;;;22.02;;
74833;SDS011;63361;52.384;20.930;2022-10-31T02:32:14;50.97;;;21.23;;
74833;SDS011;63361;52.384;20.930;2022-10-31T02:34:54;45.90;;;20.33;;
74833;SDS011;63361;52.384;20.930;2022-10-31T02:37:50;52.28;;;22.63;;
74833;SDS011;63361;52.384;20.930;2022-10-31T02:43:05;53.47;;;26.00;;
74833;SDS011;63361;52.384;20.930;2022-10-31T02:48:48;50.30;;;23.40;;
74833;SDS011;63361;52.384;20.930;2022-10-31T02:51:18;49.25;;;23.13;;
74833;SDS011;63361;52.384;20.930;2022-10-31T02:53:44;58.67;;;25.77;;
74833;SDS011;63361;52.384;20.930;2022-10-31T02:56:16;57.53;;;23.83;;
74833;SDS011;63361;52.384;20.930;2022-10-31T02:58:45;50.70;;;24.30;;
74833;SDS011;63361;52.384;20.930;2022-10-31T03:11:59;49.90;;;24.13;;
74833;SDS011;63361;52.384;20.930;2022-10-31T03:17:52;61.78;;;25.92;;
74833;SDS011;63361;52.384;20.930;2022-10-31T03:20:33;75.07;;;29.38;;
74833;SDS011;63361;52.384;20.930;2022-10-31T03:23:04;84.05;;;30.38;;
74833;SDS011;63361;52.384;20.930;2022-10-31T03:25:34;81.97;;;31.07;;
74833;SDS011;63361;52.384;20.930;2022-10-31T03:28:02;85.22;;;31.60;;
74833;SDS011;63361;52.384;20.930;2022-10-31T03:30:31;79.53;;;29.73;;
74833;SDS011;63361;52.384;20.930;2022-10-31T03:33:00;86.32;;;30.58;;
74833;SDS011;63361;52.384;20.930;2022-10-31T03:35:29;105.40;;;36.92;;
74833;SDS011;63361;52.384;20.930;2022-10-31T03:37:57;107.97;;;35.83;;
74833;SDS011;63361;52.384;20.930;2022-10-31T03:40:26;95.35;;;33.08;;
74833;SDS011;63361;52.384;20.930;2022-10-31T03:43:00;101.72;;;32.90;;
74833;SDS011;63361;52.384;20.930;2022-10-31T03:45:32;83.20;;;29.27;;
74833;SDS011;63361;52.384;20.930;2022-10-31T03:48:04;91.80;;;29.77;;
74833;SDS011;63361;52.384;20.930;2022-10-31T03:50:32;74.97;;;28.33;;
74833;SDS011;63361;52.384;20.930;2022-10-31T03:53:07;74.22;;;28.77;;
74833;SDS011;63361;52.384;20.930;2022-10-31T03:58:15;80.07;;;31.17;;
74833;SDS011;63361;52.384;20.930;2022-10-31T04:00:46;70.65;;;29.05;;
74833;SDS011;63361;52.384;20.930;2022-10-31T04:03:17;64.20;;;26.83;;
74833;SDS011;63361;52.384;20.930;2022-10-31T04:05:48;63.95;;;28.05;;
74833;SDS011;63361;52.384;20.930;2022-10-31T04:08:17;71.40;;;28.20;;
74833;SDS011;63361;52.384;20.930;2022-10-31T04:10:47;62.17;;;27.55;;
74833;SDS011;63361;52.384;20.930;2022-10-31T04:13:14;72.10;;;28.70;;
74833;SDS011;63361;52.384;20.930;2022-10-31T04:15:44;71.83;;;30.50;;
74833;SDS011;63361;52.384;20.930;2022-10-31T04:18:11;67.78;;;29.20;;
74833;SDS011;63361;52.384;20.930;2022-10-31T04:20:38;72.80;;;29.25;;
74833;SDS011;63361;52.384;20.930;2022-10-31T04:23:04;70.20;;;29.60;;
74833;SDS011;63361;52.384;20.930;2022-10-31T04:25:41;68.90;;;31.67;;
74833;SDS011;63361;52.384;20.930;2022-10-31T04:28:06;61.00;;;28.63;;
74833;SDS011;63361;52.384;20.930;2022-10-31T04:30:32;60.87;;;28.30;;
74833;SDS011;63361;52.384;20.930;2022-10-31T04:32:57;74.55;;;31.60;;
74833;SDS011;63361;52.384;20.930;2022-10-31T04:35:22;76.30;;;32.07;;
74833;SDS011;63361;52.384;20.930;2022-10-31T04:37:48;66.73;;;29.43;;
74833;SDS011;63361;52.384;20.930;2022-10-31T04:40:13;67.83;;;31.37;;
74833;SDS011;63361;52.384;20.930;2022-10-31T04:42:38;75.07;;;33.70;;
74833;SDS011;63361;52.384;20.930;2022-10-31T04:45:04;88.63;;;35.47;;
74833;SDS011;63361;52.384;20.930;2022-10-31T04:47:33;118.95;;;40.88;;
74833;SDS011;63361;52.384;20.930;2022-10-31T04:49:58;129.43;;;43.70;;
74833;SDS011;63361;52.384;20.930;2022-10-31T04:52:24;114.00;;;42.60;;
74833;SDS011;63361;52.384;20.930;2022-10-31T04:54:49;99.40;;;41.37;;
74833;SDS011;63361;52.384;20.930;2022-10-31T04:57:14;149.47;;;54.17;;
74833;SDS011;63361;52.384;20.930;2022-10-31T04:59:40;162.63;;;51.83;;
74833;SDS011;63361;52.384;20.930;2022-10-31T05:02:05;169.33;;;52.53;;
74833;SDS011;63361;52.384;20.930;2022-10-31T05:04:30;157.10;;;49.90;;
74833;SDS011;63361;52.384;20.930;2022-10-31T05:06:56;132.87;;;41.43;;
74833;SDS011;63361;52.384;20.930;2022-10-31T05:09:21;128.87;;;41.63;;
74833;SDS011;63361;52.384;20.930;2022-10-31T05:11:46;127.87;;;39.57;;
74833;SDS011;63361;52.384;20.930;2022-10-31T05:14:12;116.17;;;41.03;;
74833;SDS011;63361;52.384;20.930;2022-10-31T05:16:37;109.27;;;39.30;;
74833;SDS011;63361;52.384;20.930;2022-10-31T05:19:02;101.13;;;37.35;;
74833;SDS011;63361;52.384;20.930;2022-10-31T05:21:28;80.77;;;33.30;;
74833;SDS011;63361;52.384;20.930;2022-10-31T05:23:53;78.27;;;33.10;;
74833;SDS011;63361;52.384;20.930;2022-10-31T05:26:18;65.53;;;33.07;;
74833;SDS011;63361;52.384;20.930;2022-10-31T05:28:44;69.60;;;33.67;;
74833;SDS011;63361;52.384;20.930;2022-10-31T05:31:09;68.87;;;33.40;;
74833;SDS011;63361;52.384;20.930;2022-10-31T05:33:34;73.30;;;32.43;;
74833;SDS011;63361;52.384;20.930;2022-10-31T05:36:00;93.80;;;36.77;;
74833;SDS011;63361;52.384;20.930;2022-10-31T05:38:25;94.78;;;35.45;;
74833;SDS011;63361;52.384;20.930;2022-10-31T05:40:53;98.03;;;36.50;;
74833;SDS011;63361;52.384;20.930;2022-10-31T05:43:22;122.00;;;38.93;;
74833;SDS011;63361;52.384;20.930;2022-10-31T05:45:51;104.80;;;34.58;;
74833;SDS011;63361;52.384;20.930;2022-10-31T05:48:17;116.38;;;36.88;;
74833;SDS011;63361;52.384;20.930;2022-10-31T05:50:42;101.77;;;34.43;;
74833;SDS011;63361;52.384;20.930;2022-10-31T05:53:07;119.50;;;36.50;;
74833;SDS011;63361;52.384;20.930;2022-10-31T05:55:33;139.17;;;40.53;;
74833;SDS011;63361;52.384;20.930;2022-10-31T05:57:58;147.13;;;41.13;;
74833;SDS011;63361;52.384;20.930;2022-10-31T06:00:24;128.37;;;38.13;;
74833;SDS011;63361;52.384;20.930;2022-10-31T06:02:57;157.48;;;40.60;;
74833;SDS011;63361;52.384;20.930;2022-10-31T06:05:26;204.70;;;45.05;;
74833;SDS011;63361;52.384;20.930;2022-10-31T06:07:51;235.87;;;48.17;;
74833;SDS011;63361;52.384;20.930;2022-10-31T06:10:17;246.88;;;52.08;;
74833;SDS011;63361;52.384;20.930;2022-10-31T06:12:44;236.40;;;50.77;;
74833;SDS011;63361;52.384;20.930;2022-10-31T06:15:09;223.23;;;51.53;;
74833;SDS011;63361;52.384;20.930;2022-10-31T06:17:35;181.67;;;47.13;;
74833;SDS011;63361;52.384;20.930;2022-10-31T06:20:01;127.47;;;42.53;;
74833;SDS011;63361;52.384;20.930;2022-10-31T06:22:28;129.70;;;44.03;;
74833;SDS011;63361;52.384;20.930;2022-10-31T06:24:53;134.02;;;49.85;;
74833;SDS011;63361;52.384;20.930;2022-10-31T06:27:19;139.13;;;52.80;;
74833;SDS011;63361;52.384;20.930;2022-10-31T06:29:44;120.80;;;48.90;;
74833;SDS011;63361;52.384;20.930;2022-10-31T06:32:12;122.55;;;48.55;;
74833;SDS011;63361;52.384;20.930;2022-10-31T06:34:39;112.78;;;50.05;;
74833;SDS011;63361;52.384;20.930;2022-10-31T06:37:08;115.83;;;50.33;;
74833;SDS011;63361;52.384;20.930;2022-10-31T06:39:35;88.03;;;43.03;;
74833;SDS011;63361;52.384;20.930;2022-10-31T06:42:00;88.32;;;40.35;;
74833;SDS011;63361;52.384;20.930;2022-10-31T06:44:26;70.50;;;36.83;;
74833;SDS011;63361;52.384;20.930;2022-10-31T06:46:51;77.83;;;34.80;;
74833;SDS011;63361;52.384;20.930;2022-10-31T06:49:17;95.17;;;37.93;;
74833;SDS011;63361;52.384;20.930;2022-10-31T06:51:42;95.93;;;37.60;;
74833;SDS011;63361;52.384;20.930;2022-10-31T06:54:08;95.17;;;37.67;;
74833;SDS011;63361;52.384;20.930;2022-10-31T06:56:33;100.53;;;39.00;;
74833;SDS011;63361;52.384;20.930;2022-10-31T06:58:59;119.97;;;41.03;;
74833;SDS011;63361;52.384;20.930;2022-10-31T07:01:24;93.43;;;37.47;;
74833;SDS011;63361;52.384;20.930;2022-10-31T07:03:49;72.83;;;33.37;;
74833;SDS011;63361;52.384;20.930;2022-10-31T07:06:15;73.77;;;33.20;;
74833;SDS011;63361;52.384;20.930;2022-10-31T07:08:40;72.40;;;32.70;;
74833;SDS011;63361;52.384;20.930;2022-10-31T07:11:06;71.60;;;31.77;;
74833;SDS011;63361;52.384;20.930;2022-10-31T07:13:31;67.30;;;30.80;;
74833;SDS011;63361;52.384;20.930;2022-10-31T07:16:01;74.47;;;32.55;;
74833;SDS011;63361;52.384;20.930;2022-10-31T07:18:29;77.60;;;33.55;;
74833;SDS011;63361;52.384;20.930;2022-10-31T07:20:54;63.23;;;31.03;;
74833;SDS011;63361;52.384;20.930;2022-10-31T07:23:20;70.10;;;33.03;;
74833;SDS011;63361;52.384;20.930;2022-10-31T07:25:46;65.55;;;32.00;;
74833;SDS011;63361;52.384;20.930;2022-10-31T07:28:11;68.23;;;32.13;;
74833;SDS011;63361;52.384;20.930;2022-10-31T07:30:37;62.10;;;31.43;;
74833;SDS011;63361;52.384;20.930;2022-10-31T07:33:03;55.40;;;28.63;;
74833;SDS011;63361;52.384;20.930;2022-10-31T07:35:29;55.42;;;28.90;;
74833;SDS011;63361;52.384;20.930;2022-10-31T07:37:55;51.42;;;26.98;;
74833;SDS011;63361;52.384;20.930;2022-10-31T07:40:21;48.40;;;26.03;;
74833;SDS011;63361;52.384;20.930;2022-10-31T07:42:48;42.05;;;24.20;;
74833;SDS011;63361;52.384;20.930;2022-10-31T07:45:19;38.38;;;22.83;;
74833;SDS011;63361;52.384;20.930;2022-10-31T07:47:52;35.23;;;20.80;;
74833;SDS011;63361;52.384;20.930;2022-10-31T07:50:19;40.28;;;22.65;;
74833;SDS011;63361;52.384;20.930;2022-10-31T07:52:57;45.08;;;23.20;;
74833;SDS011;63361;52.384;20.930;2022-10-31T07:55:30;33.72;;;20.25;;
74833;SDS011;63361;52.384;20.930;2022-10-31T07:58:00;30.93;;;18.63;;
74833;SDS011;63361;52.384;20.930;2022-10-31T08:00:27;26.52;;;17.25;;
74833;SDS011;63361;52.384;20.930;2022-10-31T08:02:59;26.65;;;17.60;;
74833;SDS011;63361;52.384;20.930;2022-10-31T08:05:26;28.90;;;17.42;;
74833;SDS011;63361;52.384;20.930;2022-10-31T08:07:52;31.30;;;18.25;;
74833;SDS011;63361;52.384;20.930;2022-10-31T08:10:18;28.47;;;18.20;;
74833;SDS011;63361;52.384;20.930;2022-10-31T08:12:43;30.37;;;18.97;;
74833;SDS011;63361;52.384;20.930;2022-10-31T08:15:08;29.17;;;17.90;;
74833;SDS011;63361;52.384;20.930;2022-10-31T08:17:35;26.92;;;18.10;;
74833;SDS011;63361;52.384;20.930;2022-10-31T08:20:01;29.00;;;17.40;;
74833;SDS011;63361;52.384;20.930;2022-10-31T08:22:26;24.70;;;16.20;;
74833;SDS011;63361;52.384;20.930;2022-10-31T08:24:52;28.03;;;17.73;;
74833;SDS011;63361;52.384;20.930;2022-10-31T08:27:17;30.37;;;18.13;;
74833;SDS011;63361;52.384;20.930;2022-10-31T08:29:42;26.50;;;18.02;;
74833;SDS011;63361;52.384;20.930;2022-10-31T08:32:08;27.53;;;17.37;;
74833;SDS011;63361;52.384;20.930;2022-10-31T08:34:33;26.77;;;17.60;;
74833;SDS011;63361;52.384;20.930;2022-10-31T08:36:58;29.13;;;17.13;;
74833;SDS011;63361;52.384;20.930;2022-10-31T08:39:24;27.57;;;17.67;;
74833;SDS011;63361;52.384;20.930;2022-10-31T08:41:50;26.30;;;16.93;;
74833;SDS011;63361;52.384;20.930;2022-10-31T08:44:15;29.10;;;16.63;;
74833;SDS011;63361;52.384;20.930;2022-10-31T08:46:41;26.47;;;16.93;;
74833;SDS011;63361;52.384;20.930;2022-10-31T08:49:06;22.83;;;16.33;;
74833;SDS011;63361;52.384;20.930;2022-10-31T08:51:31;25.10;;;16.00;;
74833;SDS011;63361;52.384;20.930;2022-10-31T08:53:57;24.03;;;15.97;;
74833;SDS011;63361;52.384;20.930;2022-10-31T08:56:22;25.33;;;16.30;;
74833;SDS011;63361;52.384;20.930;2022-10-31T08:58:48;23.73;;;14.70;;
74833;SDS011;63361;52.384;20.930;2022-10-31T09:01:14;22.03;;;15.57;;
74833;SDS011;63361;52.384;20.930;2022-10-31T09:03:39;21.80;;;15.85;;
74833;SDS011;63361;52.384;20.930;2022-10-31T09:06:04;25.40;;;16.33;;
74833;SDS011;63361;52.384;20.930;2022-10-31T09:08:33;24.13;;;15.65;;
74833;SDS011;63361;52.384;20.930;2022-10-31T09:11:00;21.63;;;14.33;;
74833;SDS011;63361;52.384;20.930;2022-10-31T09:13:25;24.15;;;15.07;;
74833;SDS011;63361;52.384;20.930;2022-10-31T09:15:51;21.50;;;13.30;;
74833;SDS011;63361;52.384;20.930;2022-10-31T09:18:17;23.80;;;13.63;;
74833;SDS011;63361;52.384;20.930;2022-10-31T09:20:46;23.10;;;13.50;;
74833;SDS011;63361;52.384;20.930;2022-10-31T09:23:19;22.63;;;13.40;;
74833;SDS011;63361;52.384;20.930;2022-10-31T09:25:46;26.73;;;13.07;;
74833;SDS011;63361;52.384;20.930;2022-10-31T09:28:14;21.05;;;12.55;;
74833;SDS011;63361;52.384;20.930;2022-10-31T09:30:42;22.33;;;11.70;;
74833;SDS011;63361;52.384;20.930;2022-10-31T09:33:11;20.35;;;11.82;;
74833;SDS011;63361;52.384;20.930;2022-10-31T09:35:37;18.35;;;11.32;;
74833;SDS011;63361;52.384;20.930;2022-10-31T09:38:04;19.35;;;11.82;;
74833;SDS011;63361;52.384;20.930;2022-10-31T09:40:38;18.35;;;11.88;;
74833;SDS011;63361;52.384;20.930;2022-10-31T09:43:13;21.27;;;11.70;;
74833;SDS011;63361;52.384;20.930;2022-10-31T09:45:48;21.85;;;11.40;;
74833;SDS011;63361;52.384;20.930;2022-10-31T09:51:25;20.55;;;11.95;;
74833;SDS011;63361;52.384;20.930;2022-10-31T09:56:33;17.93;;;10.77;;
74833;SDS011;63361;52.384;20.930;2022-10-31T09:59:00;21.45;;;10.55;;
74833;SDS011;63361;52.384;20.930;2022-10-31T10:04:30;17.20;;;9.93;;
74833;SDS011;63361;52.384;20.930;2022-10-31T10:07:29;17.90;;;9.75;;
74833;SDS011;63361;52.384;20.930;2022-10-31T10:10:00;18.57;;;9.57;;
74833;SDS011;63361;52.384;20.930;2022-10-31T10:18:08;16.05;;;9.18;;
74833;SDS011;63361;52.384;20.930;2022-10-31T10:26:19;16.38;;;9.57;;
74833;SDS011;63361;52.384;20.930;2022-10-31T10:28:51;16.98;;;11.18;;
74833;SDS011;63361;52.384;20.930;2022-10-31T10:31:27;19.92;;;11.35;;
74833;SDS011;63361;52.384;20.930;2022-10-31T10:33:59;16.30;;;10.20;;
74833;SDS011;63361;52.384;20.930;2022-10-31T10:39:31;16.88;;;9.88;;
74833;SDS011;63361;52.384;20.930;2022-10-31T10:42:13;17.15;;;9.85;;
74833;SDS011;63361;52.384;20.930;2022-10-31T10:44:59;16.95;;;9.73;;
74833;SDS011;63361;52.384;20.930;2022-10-31T10:47:53;16.80;;;10.40;;
74833;SDS011;63361;52.384;20.930;2022-10-31T10:50:26;16.13;;;9.03;;
74833;SDS011;63361;52.384;20.930;2022-10-31T10:53:09;15.35;;;9.65;;
74833;SDS011;63361;52.384;20.930;2022-10-31T10:58:58;15.73;;;9.07;;
74833;SDS011;63361;52.384;20.930;2022-10-31T11:01:23;16.77;;;9.37;;
74833;SDS011;63361;52.384;20.930;2022-10-31T11:03:49;18.20;;;9.25;;
74833;SDS011;63361;52.384;20.930;2022-10-31T11:06:19;17.13;;;9.37;;
74833;SDS011;63361;52.384;20.930;2022-10-31T11:08:50;16.03;;;9.60;;
74833;SDS011;63361;52.384;20.930;2022-10-31T11:11:25;14.73;;;9.65;;
74833;SDS011;63361;52.384;20.930;2022-10-31T11:13:59;13.63;;;8.35;;
74833;SDS011;63361;52.384;20.930;2022-10-31T11:16:30;14.70;;;9.60;;
74833;SDS011;63361;52.384;20.930;2022-10-31T11:21:37;15.82;;;9.95;;
74833;SDS011;63361;52.384;20.930;2022-10-31T11:26:34;17.50;;;10.50;;
74833;SDS011;63361;52.384;20.930;2022-10-31T11:29:02;16.50;;;10.20;;
74833;SDS011;63361;52.384;20.930;2022-10-31T11:31:29;19.30;;;9.88;;
74833;SDS011;63361;52.384;20.930;2022-10-31T11:34:02;15.90;;;9.95;;
74833;SDS011;63361;52.384;20.930;2022-10-31T11:36:31;17.40;;;11.20;;
74833;SDS011;63361;52.384;20.930;2022-10-31T11:38:59;20.67;;;12.20;;
74833;SDS011;63361;52.384;20.930;2022-10-31T11:41:29;18.60;;;11.07;;
74833;SDS011;63361;52.384;20.930;2022-10-31T11:44:04;19.98;;;11.80;;
74833;SDS011;63361;52.384;20.930;2022-10-31T11:46:44;18.67;;;10.80;;
74833;SDS011;63361;52.384;20.930;2022-10-31T11:49:15;20.42;;;11.95;;
74833;SDS011;63361;52.384;20.930;2022-10-31T11:51:47;21.30;;;11.83;;
74833;SDS011;63361;52.384;20.930;2022-10-31T11:54:22;21.08;;;11.57;;
74833;SDS011;63361;52.384;20.930;2022-10-31T11:56:53;20.00;;;11.88;;
74833;SDS011;63361;52.384;20.930;2022-10-31T11:59:21;19.17;;;11.87;;
74833;SDS011;63361;52.384;20.930;2022-10-31T12:01:50;23.50;;;12.00;;
74833;SDS011;63361;52.384;20.930;2022-10-31T12:04:16;26.48;;;13.80;;
74833;SDS011;63361;52.384;20.930;2022-10-31T12:06:43;24.57;;;13.83;;
74833;SDS011;63361;52.384;20.930;2022-10-31T12:17:38;19.70;;;12.27;;
74833;SDS011;63361;52.384;20.930;2022-10-31T12:28:28;24.23;;;13.37;;
74833;SDS011;63361;52.384;20.930;2022-10-31T12:33:53;24.45;;;13.18;;
74833;SDS011;63361;52.384;20.930;2022-10-31T12:50:21;20.63;;;12.80;;
74833;SDS011;63361;52.384;20.930;2022-10-31T13:01:06;25.08;;;14.30;;
74833;SDS011;63361;52.384;20.930;2022-10-31T13:06:19;19.55;;;13.10;;
74833;SDS011;63361;52.384;20.930;2022-10-31T13:08:49;25.13;;;14.60;;
74833;SDS011;63361;52.384;20.930;2022-10-31T13:11:20;25.05;;;13.48;;
74833;SDS011;63361;52.384;20.930;2022-10-31T13:16:16;24.73;;;14.47;;
74833;SDS011;63361;52.384;20.930;2022-10-31T13:21:21;23.30;;;15.20;;
74833;SDS011;63361;52.384;20.930;2022-10-31T13:23:50;26.38;;;15.02;;
74833;SDS011;63361;52.384;20.930;2022-10-31T13:31:42;23.52;;;14.20;;
74833;SDS011;63361;52.384;20.930;2022-10-31T13:36:48;22.70;;;13.53;;
74833;SDS011;63361;52.384;20.930;2022-10-31T13:39:33;20.35;;;13.73;;
74833;SDS011;63361;52.384;20.930;2022-10-31T13:45:18;23.50;;;13.38;;
74833;SDS011;63361;52.384;20.930;2022-10-31T13:48:46;26.25;;;13.15;;
74833;SDS011;63361;52.384;20.930;2022-10-31T13:50:41;27.70;;;13.87;;
74833;SDS011;63361;52.384;20.930;2022-10-31T13:53:12;22.88;;;12.75;;
74833;SDS011;63361;52.384;20.930;2022-10-31T13:55:44;21.98;;;12.75;;
74833;SDS011;63361;52.384;20.930;2022-10-31T13:58:27;22.52;;;12.25;;
74833;SDS011;63361;52.384;20.930;2022-10-31T14:00:58;25.77;;;12.45;;
74833;SDS011;63361;52.384;20.930;2022-10-31T14:03:26;23.00;;;12.27;;
74833;SDS011;63361;52.384;20.930;2022-10-31T14:05:53;24.00;;;12.90;;
74833;SDS011;63361;52.384;20.930;2022-10-31T14:08:21;26.63;;;12.35;;
74833;SDS011;63361;52.384;20.930;2022-10-31T14:10:49;21.17;;;12.23;;
74833;SDS011;63361;52.384;20.930;2022-10-31T14:13:36;24.52;;;12.65;;
74833;SDS011;63361;52.384;20.930;2022-10-31T14:19:04;25.05;;;14.18;;
74833;SDS011;63361;52.384;20.930;2022-10-31T14:21:38;25.27;;;13.90;;
74833;SDS011;63361;52.384;20.930;2022-10-31T14:27:01;27.10;;;13.98;;
74833;SDS011;63361;52.384;20.930;2022-10-31T14:29:29;26.57;;;14.53;;
74833;SDS011;63361;52.384;20.930;2022-10-31T14:32:01;26.85;;;15.60;;
74833;SDS011;63361;52.384;20.930;2022-10-31T14:34:57;29.70;;;15.55;;
74833;SDS011;63361;52.384;20.930;2022-10-31T14:43:26;33.90;;;17.87;;
74833;SDS011;63361;52.384;20.930;2022-10-31T14:46:25;33.63;;;19.02;;
74833;SDS011;63361;52.384;20.930;2022-10-31T14:51:29;34.92;;;19.77;;
74833;SDS011;63361;52.384;20.930;2022-10-31T14:54:00;40.40;;;21.58;;
74833;SDS011;63361;52.384;20.930;2022-10-31T14:56:27;39.03;;;21.50;;
74833;SDS011;63361;52.384;20.930;2022-10-31T14:58:56;44.65;;;22.83;;
74833;SDS011;63361;52.384;20.930;2022-10-31T15:01:32;42.70;;;24.13;;
74833;SDS011;63361;52.384;20.930;2022-10-31T15:06:47;47.27;;;23.43;;
74833;SDS011;63361;52.384;20.930;2022-10-31T15:09:22;44.88;;;24.27;;
74833;SDS011;63361;52.384;20.930;2022-10-31T15:11:49;48.22;;;25.88;;
74833;SDS011;63361;52.384;20.930;2022-10-31T15:14:22;46.47;;;25.07;;
74833;SDS011;63361;52.384;20.930;2022-10-31T15:16:50;57.38;;;26.95;;
74833;SDS011;63361;52.384;20.930;2022-10-31T15:19:18;58.70;;;27.97;;
74833;SDS011;63361;52.384;20.930;2022-10-31T15:21:49;56.07;;;27.03;;
74833;SDS011;63361;52.384;20.930;2022-10-31T15:24:16;58.00;;;27.10;;
74833;SDS011;63361;52.384;20.930;2022-10-31T15:26:50;54.90;;;26.48;;
74833;SDS011;63361;52.384;20.930;2022-10-31T15:29:18;62.55;;;29.55;;
74833;SDS011;63361;52.384;20.930;2022-10-31T15:31:58;69.72;;;33.33;;
74833;SDS011;63361;52.384;20.930;2022-10-31T15:34:48;60.97;;;28.77;;
74833;SDS011;63361;52.384;20.930;2022-10-31T15:37:15;76.97;;;32.58;;
74833;SDS011;63361;52.384;20.930;2022-10-31T15:39:42;80.45;;;32.55;;
74833;SDS011;63361;52.384;20.930;2022-10-31T15:42:17;89.97;;;33.90;;
74833;SDS011;63361;52.384;20.930;2022-10-31T15:44:47;112.75;;;43.13;;
74833;SDS011;63361;52.384;20.930;2022-10-31T15:47:17;123.17;;;41.50;;
74833;SDS011;63361;52.384;20.930;2022-10-31T15:49:54;106.55;;;37.67;;
74833;SDS011;63361;52.384;20.930;2022-10-31T15:57:42;133.30;;;38.37;;
74833;SDS011;63361;52.384;20.930;2022-10-31T16:00:29;133.45;;;38.67;;
74833;SDS011;63361;52.384;20.930;2022-10-31T16:05:49;136.45;;;39.08;;
74833;SDS011;63361;52.384;20.930;2022-10-31T16:08:31;139.50;;;40.13;;
74833;SDS011;63361;52.384;20.930;2022-10-31T16:11:22;130.95;;;40.25;;
74833;SDS011;63361;52.384;20.930;2022-10-31T16:16:42;156.33;;;42.27;;
74833;SDS011;63361;52.384;20.930;2022-10-31T16:19:14;148.95;;;40.67;;
74833;SDS011;63361;52.384;20.930;2022-10-31T16:21:44;160.38;;;41.10;;
74833;SDS011;63361;52.384;20.930;2022-10-31T16:24:18;176.60;;;47.50;;
74833;SDS011;63361;52.384;20.930;2022-10-31T16:26:53;313.63;;;125.60;;
74833;SDS011;63361;52.384;20.930;2022-10-31T16:29:27;164.97;;;45.17;;
74833;SDS011;63361;52.384;20.930;2022-10-31T16:31:52;159.82;;;42.05;;
74833;SDS011;63361;52.384;20.930;2022-10-31T16:34:19;138.50;;;39.50;;
74833;SDS011;63361;52.384;20.930;2022-10-31T16:36:46;134.98;;;38.25;;
74833;SDS011;63361;52.384;20.930;2022-10-31T16:39:11;145.57;;;41.23;;
74833;SDS011;63361;52.384;20.930;2022-10-31T16:41:39;147.98;;;41.40;;
74833;SDS011;63361;52.384;20.930;2022-10-31T16:44:12;138.15;;;39.67;;
74833;SDS011;63361;52.384;20.930;2022-10-31T16:46:41;128.98;;;38.30;;
74833;SDS011;63361;52.384;20.930;2022-10-31T16:49:10;152.63;;;48.40;;